Time;durP1;ratioP1;P1;durP2;ratioP2;P2;SDS_P1;SDS_P2;PMS_P1;PMS_P2;Temp;Humidity;BMP_temperature;BMP_pressure;BME280_temperature;BME280_humidity;BME280_pressure;Samples;Min_cycle;Max_cycle;Signal;HPM_P1;HPM_P2
2021/08/20 00:01:42;;;;;;;5.47;2.30;;;14.70;56.50;;;;;;5011071;28;20296;-52
2021/08/20 00:04:12;;;;;;;3.85;2.08;;;14.60;56.50;;;;;;5011112;28;20239;-49
2021/08/20 00:06:43;;;;;;;4.15;2.38;;;14.70;56.60;;;;;;5010696;28;20248;-55
2021/08/20 00:09:13;;;;;;;3.50;2.28;;;14.70;56.70;;;;;;5009619;28;20267;-54
2021/08/20 00:11:43;;;;;;;4.00;1.95;;;14.70;56.90;;;;;;5010623;28;20296;-50
2021/08/20 00:14:16;;;;;;;3.00;2.08;;;14.70;57.00;;;;;;5010645;28;20636;-49
2021/08/20 00:16:46;;;;;;;3.88;2.30;;;14.80;57.00;;;;;;5010720;28;20267;-50
2021/08/20 00:19:17;;;;;;;4.00;2.53;;;14.80;57.00;;;;;;5009917;28;20637;-50
2021/08/20 00:21:47;;;;;;;5.40;2.60;;;14.80;56.90;;;;;;5009945;28;20653;-52
2021/08/20 00:24:17;;;;;;;4.13;2.13;;;14.80;56.90;;;;;;5010615;28;20243;-55
2021/08/20 00:26:48;;;;;;;4.97;2.28;;;14.80;56.90;;;;;;5010633;28;20256;-53
2021/08/20 00:29:20;;;;;;;4.75;2.53;;;14.80;56.80;;;;;;5010497;28;20236;-50
2021/08/20 00:31:50;;;;;;;4.53;2.40;;;14.80;57.00;;;;;;5010332;28;20235;-53
2021/08/20 00:34:21;;;;;;;3.15;1.90;;;14.80;57.10;;;;;;5010390;28;20232;-55
2021/08/20 00:36:51;;;;;;;3.20;2.03;;;14.90;57.10;;;;;;5010505;28;20252;-51
2021/08/20 00:39:22;;;;;;;4.88;2.53;;;14.90;57.00;;;;;;5010819;28;20232;-52
2021/08/20 00:41:52;;;;;;;4.03;2.63;;;14.90;57.00;;;;;;5007691;28;20264;-53
2021/08/20 00:44:25;;;;;;;2.45;1.77;;;14.90;56.90;;;;;;5010226;28;20275;-54
2021/08/20 00:46:55;;;;;;;3.38;2.45;;;15.00;56.90;;;;;;5010280;28;20453;-55
2021/08/20 00:49:26;;;;;;;3.15;2.13;;;14.90;56.80;;;;;;5010175;28;20276;-51
2021/08/20 00:51:56;;;;;;;4.00;2.30;;;14.90;56.80;;;;;;5009950;28;20251;-51
2021/08/20 00:54:44;;;;;;;4.32;2.35;;;15.00;56.80;;;;;;5010383;28;20673;-51
2021/08/20 00:57:15;;;;;;;3.72;2.22;;;15.00;56.80;;;;;;4990245;28;20252;-52
2021/08/20 00:59:48;;;;;;;3.45;2.47;;;15.00;56.70;;;;;;5008637;28;20672;-51
2021/08/20 01:02:18;;;;;;;1.98;1.65;;;15.00;56.70;;;;;;5010156;28;20205;-52
2021/08/20 01:04:49;;;;;;;2.92;2.10;;;15.00;56.70;;;;;;5010206;28;20243;-50
2021/08/20 01:07:30;;;;;;;4.85;2.50;;;15.00;56.70;;;;;;5010097;28;20251;-50
2021/08/20 01:10:01;;;;;;;4.63;1.95;;;15.10;56.70;;;;;;5010684;28;20232;-52
2021/08/20 01:12:31;;;;;;;2.55;1.90;;;15.10;56.60;;;;;;5011168;28;20236;-51
2021/08/20 01:15:03;;;;;;;4.07;2.22;;;15.10;56.60;;;;;;5009025;28;20232;-54
2021/08/20 01:17:34;;;;;;;4.18;2.25;;;15.10;56.60;;;;;;5009114;28;20275;-48
2021/08/20 01:20:05;;;;;;;3.33;2.10;;;15.10;56.60;;;;;;5010000;28;20220;-51
2021/08/20 01:22:36;;;;;;;2.72;1.85;;;15.10;56.50;;;;;;5010614;28;20237;-49
2021/08/20 01:25:09;;;;;;;3.58;1.85;;;15.20;56.50;;;;;;5010023;28;20248;-50
2021/08/20 01:27:40;;;;;;;3.63;2.03;;;15.20;56.50;;;;;;5008233;28;20247;-55
2021/08/20 01:30:11;;;;;;;3.28;2.17;;;15.20;56.50;;;;;;5012640;28;20243;-54
2021/08/20 01:32:41;;;;;;;2.40;1.85;;;15.20;56.50;;;;;;5013530;28;20259;-53
2021/08/20 01:35:12;;;;;;;2.95;1.75;;;15.20;56.50;;;;;;5013973;28;20696;-50
2021/08/20 01:37:42;;;;;;;4.03;2.38;;;15.20;56.50;;;;;;5012667;28;20255;-54
2021/08/20 01:40:16;;;;;;;3.25;2.00;;;15.20;56.50;;;;;;5013696;28;20307;-48
2021/08/20 01:42:46;;;;;;;1.88;1.65;;;15.20;56.50;;;;;;5013354;28;20232;-49
2021/08/20 01:45:17;;;;;;;3.38;2.20;;;15.30;56.50;;;;;;5013300;28;20236;-54
2021/08/20 01:47:47;;;;;;;2.78;1.90;;;15.30;56.50;;;;;;5013774;28;20731;-50
2021/08/20 01:50:18;;;;;;;2.63;1.98;;;15.30;56.50;;;;;;5013963;28;20680;-52
2021/08/20 01:52:48;;;;;;;3.47;1.80;;;15.30;56.50;;;;;;5013136;28;20746;-50
2021/08/20 01:55:21;;;;;;;3.58;2.10;;;15.30;56.50;;;;;;5012909;28;20197;-52
2021/08/20 01:57:52;;;;;;;2.78;1.92;;;15.30;56.50;;;;;;5012110;28;20688;-49
2021/08/20 02:00:23;;;;;;;2.58;1.98;;;15.40;56.60;;;;;;5012336;28;20311;-50
2021/08/20 02:02:53;;;;;;;4.25;1.80;;;15.40;56.60;;;;;;5013589;28;20292;-52
2021/08/20 02:05:24;;;;;;;1.90;1.67;;;15.40;56.50;;;;;;5012662;28;20196;-50
2021/08/20 02:07:54;;;;;;;3.08;1.80;;;15.40;56.50;;;;;;5013030;28;20256;-52
2021/08/20 02:10:26;;;;;;;2.97;1.80;;;15.40;56.50;;;;;;5012472;28;20239;-48
2021/08/20 02:12:57;;;;;;;3.08;1.85;;;15.50;56.60;;;;;;5013079;28;20284;-48
2021/08/20 02:15:27;;;;;;;2.92;1.90;;;15.50;56.50;;;;;;5013449;28;20224;-51
2021/08/20 02:17:58;;;;;;;2.75;2.00;;;15.50;56.50;;;;;;5012694;28;20248;-55
2021/08/20 02:20:29;;;;;;;2.55;1.70;;;15.50;56.50;;;;;;5013020;28;20228;-52
2021/08/20 02:22:59;;;;;;;3.33;1.98;;;15.50;56.40;;;;;;5012412;28;20293;-53
2021/08/20 02:25:31;;;;;;;5.03;2.17;;;15.50;56.40;;;;;;5012717;28;20232;-51
2021/08/20 02:28:02;;;;;;;3.60;1.80;;;15.60;56.40;;;;;;5010211;28;20248;-52
2021/08/20 02:30:32;;;;;;;3.00;2.08;;;15.60;56.40;;;;;;5009968;28;20251;-55
2021/08/20 02:33:03;;;;;;;3.55;2.40;;;15.60;56.30;;;;;;5012340;28;20255;-57
2021/08/20 02:35:33;;;;;;;4.07;1.90;;;15.60;56.30;;;;;;5012948;28;20292;-52
2021/08/20 02:38:04;;;;;;;2.28;1.70;;;15.60;56.20;;;;;;5011997;28;20729;-51
2021/08/20 02:40:36;;;;;;;3.00;2.20;;;15.60;56.10;;;;;;5012094;28;20729;-50
2021/08/20 02:43:07;;;;;;;3.63;2.03;;;15.70;56.20;;;;;;5012137;28;20287;-49
2021/08/20 02:45:37;;;;;;;3.28;1.58;;;15.70;56.10;;;;;;5012905;28;20239;-49
2021/08/20 02:48:08;;;;;;;2.97;2.13;;;15.80;56.20;;;;;;5012324;28;20300;-53
2021/08/20 02:50:38;;;;;;;2.80;1.80;;;15.80;56.10;;;;;;5012265;28;20676;-55
2021/08/20 02:53:09;;;;;;;3.03;2.00;;;15.80;56.10;;;;;;5011999;28;20280;-54
2021/08/20 02:55:41;;;;;;;2.33;1.70;;;15.80;56.00;;;;;;5011534;28;20240;-52
2021/08/20 02:58:11;;;;;;;2.75;1.95;;;15.90;56.00;;;;;;5012312;28;20259;-54
2021/08/20 03:00:42;;;;;;;2.60;1.80;;;15.90;56.00;;;;;;5010975;28;20260;-54
2021/08/20 03:03:12;;;;;;;2.30;1.40;;;15.90;56.00;;;;;;5011154;28;20239;-53
2021/08/20 03:05:43;;;;;;;4.18;1.92;;;16.00;56.00;;;;;;5011494;28;20204;-54
2021/08/20 03:08:13;;;;;;;2.47;1.70;;;16.00;56.00;;;;;;5012579;28;20256;-53
2021/08/20 03:10:45;;;;;;;2.42;2.08;;;16.00;55.90;;;;;;5012098;28;20243;-51
2021/08/20 03:13:16;;;;;;;2.28;1.60;;;16.00;55.90;;;;;;5012240;28;20232;-55
2021/08/20 03:15:46;;;;;;;2.65;1.70;;;16.00;55.90;;;;;;5011862;28;20228;-53
2021/08/20 03:18:17;;;;;;;2.67;1.83;;;16.10;55.90;;;;;;5012567;28;20304;-50
2021/08/20 03:20:48;;;;;;;2.83;1.70;;;16.10;55.90;;;;;;5011447;28;20338;-52
2021/08/20 03:23:18;;;;;;;2.47;1.77;;;16.10;55.80;;;;;;5011375;28;20209;-51
2021/08/20 03:25:51;;;;;;;3.30;2.00;;;16.20;55.80;;;;;;5021441;22;20249;-50
2021/08/20 03:28:21;;;;;;;3.55;2.15;;;16.20;55.70;;;;;;4991496;28;20720;-47
2021/08/20 03:30:51;;;;;;;2.60;1.85;;;16.20;55.70;;;;;;4991836;28;20248;-48
2021/08/20 03:33:22;;;;;;;3.17;2.13;;;16.30;55.70;;;;;;4991130;28;20276;-51
2021/08/20 03:35:52;;;;;;;2.40;1.70;;;16.30;55.70;;;;;;4992874;28;20235;-46
2021/08/20 03:38:23;;;;;;;3.28;1.70;;;16.30;55.80;;;;;;4992561;28;20300;-55
2021/08/20 03:40:55;;;;;;;2.17;1.58;;;16.40;55.80;;;;;;4992469;28;20257;-52
2021/08/20 03:43:25;;;;;;;2.30;1.60;;;16.40;55.70;;;;;;4992358;28;20337;-48
2021/08/20 03:45:56;;;;;;;2.92;2.05;;;16.40;55.60;;;;;;4992523;28;20229;-47
2021/08/20 03:48:26;;;;;;;3.58;2.05;;;16.50;55.70;;;;;;4991905;28;20213;-46
2021/08/20 03:50:57;;;;;;;2.03;1.48;;;16.50;55.60;;;;;;4990978;28;20245;-50
2021/08/20 03:53:27;;;;;;;2.72;1.92;;;16.50;55.60;;;;;;4991173;28;20248;-49
2021/08/20 03:56:00;;;;;;;2.90;1.60;;;16.50;55.60;;;;;;4991826;28;20237;-43
2021/08/20 03:58:30;;;;;;;2.25;1.55;;;16.50;55.60;;;;;;4991933;28;20249;-47
2021/08/20 04:01:00;;;;;;;2.28;1.70;;;16.60;55.50;;;;;;4992108;28;20304;-41
2021/08/20 04:03:31;;;;;;;2.80;1.75;;;16.60;55.40;;;;;;4992147;28;20237;-45
2021/08/20 04:06:01;;;;;;;2.55;1.75;;;16.60;55.30;;;;;;4992260;28;20237;-49
2021/08/20 04:08:32;;;;;;;2.08;1.60;;;16.60;55.20;;;;;;4991582;28;20321;-47
2021/08/20 04:11:04;;;;;;;2.47;1.67;;;16.70;55.10;;;;;;4977290;28;20297;-42
2021/08/20 04:13:34;;;;;;;2.85;1.70;;;16.70;55.10;;;;;;4972183;28;20234;-41
2021/08/20 04:16:05;;;;;;;1.90;1.42;;;16.70;55.00;;;;;;4972344;28;20229;-51
2021/08/20 04:18:35;;;;;;;1.83;1.58;;;16.70;55.00;;;;;;4972287;28;20230;-44
2021/08/20 04:21:06;;;;;;;1.52;1.42;;;16.70;54.90;;;;;;4972205;28;20657;-46
2021/08/20 04:23:36;;;;;;;2.35;1.50;;;16.70;54.90;;;;;;4982073;28;20662;-45
2021/08/20 04:26:09;;;;;;;2.50;1.45;;;16.70;54.80;;;;;;5008772;23;20788;-55
2021/08/20 04:28:39;;;;;;;1.50;1.20;;;16.70;54.80;;;;;;4992013;28;20630;-52
2021/08/20 04:31:10;;;;;;;2.80;1.75;;;16.70;54.80;;;;;;4991633;28;20636;-52
2021/08/20 04:33:41;;;;;;;3.05;1.63;;;16.70;54.80;;;;;;4991776;28;20606;-55
2021/08/20 04:36:11;;;;;;;2.03;1.50;;;16.70;54.70;;;;;;4991814;28;20627;-53
2021/08/20 04:38:43;;;;;;;2.63;1.83;;;16.70;54.70;;;;;;4991433;28;20285;-51
2021/08/20 04:41:15;;;;;;;2.33;1.33;;;16.70;54.70;;;;;;4989121;28;20223;-52
2021/08/20 04:43:46;;;;;;;2.35;2.05;;;16.70;54.60;;;;;;4991087;28;20229;-54
2021/08/20 04:46:16;;;;;;;1.60;1.33;;;16.70;54.60;;;;;;4991566;28;20293;-55
2021/08/20 04:48:46;;;;;;;2.15;1.65;;;16.70;54.60;;;;;;4987983;28;20328;-53
2021/08/20 04:51:17;;;;;;;2.45;1.40;;;16.70;54.60;;;;;;4972383;28;20234;-55
2021/08/20 04:53:48;;;;;;;1.60;1.40;;;16.80;54.70;;;;;;4983623;28;20209;-54
2021/08/20 04:56:21;;;;;;;2.13;1.58;;;16.80;54.70;;;;;;4991440;28;20194;-49
2021/08/20 04:58:52;;;;;;;2.10;1.60;;;16.70;54.60;;;;;;4991700;28;20292;-54
2021/08/20 05:01:23;;;;;;;2.47;1.98;;;16.70;54.70;;;;;;4991678;28;20217;-51
2021/08/20 05:03:53;;;;;;;1.70;1.60;;;16.70;54.70;;;;;;4993793;28;20288;-54
2021/08/20 05:06:24;;;;;;;2.40;1.60;;;16.70;54.60;;;;;;4995659;28;20284;-53
2021/08/20 05:08:54;;;;;;;2.90;2.00;;;16.70;54.60;;;;;;4995670;28;20225;-50
2021/08/20 05:11:27;;;;;;;2.28;1.80;;;16.70;54.50;;;;;;4995285;28;20198;-49
2021/08/20 05:13:57;;;;;;;3.28;1.75;;;16.70;54.50;;;;;;4995128;28;20205;-48
2021/08/20 05:16:28;;;;;;;2.28;1.70;;;16.70;55.20;;;;;;4995358;28;20225;-52
2021/08/20 05:18:58;;;;;;;2.17;1.83;;;16.70;55.50;;;;;;4995147;28;20202;-49
2021/08/20 05:21:29;;;;;;;2.78;1.85;;;16.80;55.40;;;;;;4994626;28;20335;-50
2021/08/20 05:23:59;;;;;;;2.53;1.88;;;16.70;55.20;;;;;;4995244;28;20645;-51
2021/08/20 05:26:31;;;;;;;2.28;1.70;;;16.70;55.20;;;;;;4995570;28;20798;-50
2021/08/20 05:29:02;;;;;;;3.40;1.80;;;16.70;55.20;;;;;;4995193;28;20635;-52
2021/08/20 05:31:32;;;;;;;2.58;1.80;;;16.70;55.20;;;;;;4984002;28;20638;-49
2021/08/20 05:34:03;;;;;;;4.03;2.30;;;16.70;55.10;;;;;;4975872;28;20252;-52
2021/08/20 05:36:33;;;;;;;2.38;1.70;;;16.70;55.10;;;;;;4975565;28;20264;-48
2021/08/20 05:39:04;;;;;;;2.30;2.00;;;16.70;55.00;;;;;;4975508;28;20233;-52
2021/08/20 05:41:36;;;;;;;4.35;1.85;;;16.70;54.90;;;;;;4975137;28;20309;-51
2021/08/20 05:44:07;;;;;;;2.28;1.77;;;16.70;54.90;;;;;;4975428;28;20203;-50
2021/08/20 05:46:37;;;;;;;3.05;1.70;;;16.60;55.40;;;;;;4975319;28;20253;-52
2021/08/20 05:49:08;;;;;;;2.72;1.95;;;16.60;54.80;;;;;;4975310;28;20234;-51
2021/08/20 05:51:38;;;;;;;2.88;1.65;;;16.70;54.90;;;;;;4975486;28;20733;-54
2021/08/20 05:54:09;;;;;;;2.67;1.73;;;16.60;55.40;;;;;;4989165;28;20666;-50
2021/08/20 05:56:41;;;;;;;2.30;1.77;;;16.60;54.80;;;;;;4993935;28;20253;-52
2021/08/20 05:59:12;;;;;;;2.47;1.90;;;16.60;54.70;;;;;;4994250;28;20291;-52
2021/08/20 06:01:42;;;;;;;3.50;1.73;;;16.60;54.70;;;;;;4994500;28;20217;-49
2021/08/20 06:04:12;;;;;;;2.38;2.00;;;16.50;54.70;;;;;;4994576;28;20652;-50
2021/08/20 06:06:43;;;;;;;2.95;1.85;;;16.50;54.60;;;;;;4993771;28;20749;-53
2021/08/20 06:09:13;;;;;;;2.65;1.80;;;16.50;55.30;;;;;;4994430;28;20661;-53
2021/08/20 06:11:45;;;;;;;3.10;2.13;;;16.50;54.70;;;;;;4994153;28;20233;-49
2021/08/20 06:14:16;;;;;;;2.70;2.10;;;16.50;54.70;;;;;;4993814;28;20289;-51
2021/08/20 06:16:46;;;;;;;2.83;2.53;;;16.40;54.70;;;;;;4993215;28;20261;-51
2021/08/20 06:19:17;;;;;;;3.20;2.20;;;16.50;54.80;;;;;;4994046;28;20233;-52
2021/08/20 06:21:47;;;;;;;2.55;2.35;;;16.40;54.70;;;;;;4994681;28;20324;-49
2021/08/20 06:24:18;;;;;;;2.67;2.28;;;16.40;54.70;;;;;;4994344;28;20232;-53
2021/08/20 06:26:50;;;;;;;2.55;2.15;;;16.40;54.70;;;;;;4993970;28;20257;-50
2021/08/20 06:29:21;;;;;;;3.55;2.50;;;16.40;54.90;;;;;;4993727;28;20233;-52
2021/08/20 06:31:51;;;;;;;3.72;2.17;;;16.40;54.70;;;;;;4993481;28;20201;-50
2021/08/20 06:34:22;;;;;;;2.60;2.28;;;16.30;54.60;;;;;;4993330;28;20229;-51
2021/08/20 06:36:52;;;;;;;2.85;2.55;;;16.30;54.60;;;;;;4992882;28;20249;-50
2021/08/20 06:39:23;;;;;;;2.97;2.55;;;16.30;54.60;;;;;;4993479;28;20229;-48
2021/08/20 06:41:55;;;;;;;3.05;2.10;;;16.30;54.60;;;;;;4993567;28;20221;-51
2021/08/20 06:44:25;;;;;;;4.90;2.90;;;16.20;54.50;;;;;;4993685;28;20233;-50
2021/08/20 06:46:56;;;;;;;4.05;2.78;;;16.20;54.60;;;;;;4994027;28;20245;-52
2021/08/20 06:49:26;;;;;;;3.33;2.80;;;16.20;54.60;;;;;;4993819;28;20247;-51
2021/08/20 06:51:56;;;;;;;3.30;3.00;;;16.20;54.60;;;;;;4993717;28;20693;-51
2021/08/20 06:54:27;;;;;;;3.47;2.88;;;16.10;54.50;;;;;;4993951;28;20605;-49
2021/08/20 06:56:59;;;;;;;3.17;2.83;;;16.10;54.50;;;;;;4980187;28;20699;-52
2021/08/20 06:59:30;;;;;;;3.47;3.13;;;16.10;54.50;;;;;;4973837;28;20666;-54
2021/08/20 07:02:00;;;;;;;4.53;3.10;;;16.10;54.50;;;;;;4973459;28;20284;-49
2021/08/20 07:04:30;;;;;;;4.10;3.25;;;16.00;54.50;;;;;;4973711;28;20357;-54
2021/08/20 07:07:01;;;;;;;4.03;2.95;;;16.00;54.50;;;;;;4973968;28;20667;-49
2021/08/20 07:09:31;;;;;;;3.45;2.83;;;16.00;54.50;;;;;;4974202;28;20261;-49
2021/08/20 07:12:04;;;;;;;3.53;2.65;;;16.00;54.50;;;;;;4974186;28;20234;-49
2021/08/20 07:14:34;;;;;;;3.17;2.88;;;15.90;54.50;;;;;;4975672;28;20663;-51
2021/08/20 07:17:05;;;;;;;3.17;2.88;;;15.90;54.50;;;;;;4993587;28;20252;-50
2021/08/20 07:19:35;;;;;;;3.47;2.78;;;15.90;54.60;;;;;;4993126;28;20640;-53
2021/08/20 07:22:06;;;;;;;4.78;3.35;;;15.80;55.10;;;;;;4993250;28;20284;-55
2021/08/20 07:24:36;;;;;;;3.17;2.80;;;15.80;54.60;;;;;;4993118;28;20623;-54
2021/08/20 07:27:09;;;;;;;4.90;3.00;;;15.80;54.60;;;;;;4993123;28;20284;-53
2021/08/20 07:29:39;;;;;;;2.90;2.60;;;15.80;54.60;;;;;;4986343;28;20225;-55
2021/08/20 07:32:10;;;;;;;4.85;2.92;;;15.70;55.10;;;;;;4972881;28;20221;-52
2021/08/20 07:34:41;;;;;;;3.67;3.00;;;15.70;54.50;;;;;;4972919;28;20234;-50
2021/08/20 07:37:11;;;;;;;4.05;3.00;;;15.70;54.60;;;;;;4987591;28;20260;-49
2021/08/20 07:39:41;;;;;;;4.50;2.88;;;15.70;54.60;;;;;;4993021;28;20237;-52
2021/08/20 07:42:14;;;;;;;3.13;2.45;;;15.60;54.50;;;;;;4992676;28;20271;-53
2021/08/20 07:44:44;;;;;;;3.25;2.80;;;15.60;54.50;;;;;;4992354;28;20244;-55
2021/08/20 07:47:14;;;;;;;4.13;3.17;;;15.60;54.60;;;;;;4992263;28;20284;-52
2021/08/20 07:49:45;;;;;;;4.15;3.30;;;15.50;54.60;;;;;;4992516;28;20229;-52
2021/08/20 07:52:15;;;;;;;3.78;2.85;;;15.60;54.60;;;;;;4992874;28;20278;-53
2021/08/20 07:54:47;;;;;;;3.78;2.92;;;15.50;54.60;;;;;;4992747;28;20198;-54
2021/08/20 07:57:20;;;;;;;3.53;2.88;;;15.50;54.60;;;;;;4992507;28;20217;-49
2021/08/20 07:59:50;;;;;;;4.22;3.00;;;15.50;54.60;;;;;;4992362;28;20233;-49
2021/08/20 08:02:20;;;;;;;3.25;2.53;;;15.40;54.60;;;;;;4991890;28;20309;-50
2021/08/20 08:04:51;;;;;;;3.30;2.85;;;15.40;54.60;;;;;;4991732;28;20225;-53
2021/08/20 08:07:21;;;;;;;3.60;3.05;;;15.40;54.60;;;;;;4991363;28;20249;-55
2021/08/20 08:09:52;;;;;;;3.45;2.92;;;15.40;54.60;;;;;;4991899;28;20198;-52
2021/08/20 08:12:25;;;;;;;3.92;2.90;;;15.40;54.60;;;;;;4992129;28;20202;-52
2021/08/20 08:14:56;;;;;;;3.60;2.78;;;15.40;54.60;;;;;;4991941;28;20247;-53
2021/08/20 08:17:26;;;;;;;3.17;2.80;;;15.30;54.60;;;;;;4991738;28;20701;-49
2021/08/20 08:19:57;;;;;;;3.55;3.00;;;15.30;54.60;;;;;;4991602;28;20239;-53
2021/08/20 08:22:27;;;;;;;3.10;2.80;;;15.30;54.60;;;;;;4988649;28;20248;-55
2021/08/20 08:24:58;;;;;;;3.55;2.58;;;15.20;54.60;;;;;;4972815;28;20241;-54
2021/08/20 08:27:30;;;;;;;4.00;2.92;;;15.20;54.60;;;;;;4972616;28;20265;-55
2021/08/20 08:30:00;;;;;;;5.78;3.10;;;15.20;54.70;;;;;;4972470;28;20261;-49
2021/08/20 08:32:31;;;;;;;4.97;3.55;;;15.20;54.70;;;;;;4972498;28;20230;-52
2021/08/20 08:35:01;;;;;;;3.78;2.80;;;15.20;54.70;;;;;;4972432;28;20241;-56
2021/08/20 08:37:32;;;;;;;3.15;2.67;;;15.20;55.00;;;;;;4972117;28;20261;-55
2021/08/20 08:40:02;;;;;;;3.85;2.88;;;15.20;55.10;;;;;;4972606;28;20234;-54
2021/08/20 08:42:34;;;;;;;4.28;2.83;;;15.20;55.10;;;;;;4972839;28;20261;-52
2021/08/20 08:45:05;;;;;;;3.97;3.00;;;15.10;55.00;;;;;;4978129;28;20240;-52
2021/08/20 08:47:36;;;;;;;3.80;2.92;;;15.10;55.00;;;;;;4992232;28;20759;-55
2021/08/20 08:50:08;;;;;;;3.15;2.83;;;15.10;55.00;;;;;;4991936;28;20229;-54
2021/08/20 08:52:38;;;;;;;2.90;2.60;;;15.10;55.00;;;;;;4991662;28;20288;-54
2021/08/20 08:55:09;;;;;;;4.40;3.10;;;15.10;55.00;;;;;;4990025;28;20225;-52
2021/08/20 08:57:42;;;;;;;3.83;2.92;;;15.10;55.00;;;;;;4972642;28;20245;-53
2021/08/20 09:00:13;;;;;;;4.05;2.85;;;15.00;55.50;;;;;;4973197;28;20622;-54
2021/08/20 09:02:44;;;;;;;3.25;2.58;;;15.00;54.90;;;;;;4972673;28;20257;-53
2021/08/20 09:05:14;;;;;;;3.42;2.90;;;15.00;55.00;;;;;;4986746;28;20233;-53
2021/08/20 09:07:45;;;;;;;3.72;2.92;;;14.90;54.90;;;;;;4972085;28;20632;-52
2021/08/20 09:10:17;;;;;;;3.67;2.83;;;15.00;55.00;;;;;;4971933;28;20674;-54
2021/08/20 09:12:57;;;;;;;4.07;2.70;;;14.90;55.00;;;;;;4971735;28;20230;-55
2021/08/20 09:15:27;;;;;;;4.13;2.85;;;14.90;55.00;;;;;;4980143;28;20296;-52
2021/08/20 09:17:59;;;;;;;4.80;3.08;;;14.90;55.00;;;;;;4990844;28;20658;-51
2021/08/20 09:20:30;;;;;;;3.97;3.20;;;14.90;55.00;;;;;;4990691;28;20229;-54
2021/08/20 09:23:01;;;;;;;3.28;2.60;;;14.90;55.00;;;;;;4991392;28;20264;-51
2021/08/20 09:25:36;;;;;;;3.80;2.80;;;14.80;54.90;;;;;;4983520;28;20226;-50
2021/08/20 09:28:18;;;;;;;3.38;2.97;;;14.80;55.00;;;;;;4988534;28;20268;-53
2021/08/20 09:31:01;;;;;;;4.10;2.90;;;14.80;55.00;;;;;;4990525;28;20252;-50
2021/08/20 09:33:32;;;;;;;4.82;3.22;;;14.80;55.00;;;;;;4990642;28;20665;-50
2021/08/20 09:36:03;;;;;;;3.85;3.25;;;14.70;54.90;;;;;;4991133;28;20307;-49
2021/08/20 09:38:34;;;;;;;3.88;3.35;;;14.70;54.90;;;;;;4990511;28;20744;-53
2021/08/20 09:41:06;;;;;;;4.55;3.10;;;14.70;54.90;;;;;;4987670;28;20248;-49
2021/08/20 09:43:40;;;;;;;3.17;2.88;;;14.70;54.90;;;;;;4990064;28;20261;-50
2021/08/20 09:46:11;;;;;;;4.68;3.42;;;14.70;55.00;;;;;;4990620;28;20300;-50
2021/08/20 09:48:49;;;;;;;4.00;3.25;;;14.70;55.10;;;;;;4990501;28;20236;-48
2021/08/20 09:51:44;;;;;;;4.57;3.28;;;14.60;54.90;;;;;;4993495;28;20283;-49
2021/08/20 09:54:16;;;;;;;4.43;3.63;;;14.60;55.00;;;;;;4993666;28;20236;-49
2021/08/20 09:56:47;;;;;;;4.78;3.33;;;14.60;54.90;;;;;;4994282;28;20669;-50
2021/08/20 09:59:19;;;;;;;3.90;3.50;;;14.60;54.90;;;;;;4993972;28;20669;-48
2021/08/20 10:01:50;;;;;;;4.18;3.33;;;14.60;55.00;;;;;;4994364;28;20205;-50
2021/08/20 10:04:20;;;;;;;5.13;3.42;;;14.60;55.00;;;;;;4993989;28;20343;-51
2021/08/20 10:06:51;;;;;;;4.05;3.65;;;14.50;54.90;;;;;;4993480;28;20256;-52
2021/08/20 10:09:22;;;;;;;4.57;4.03;;;14.50;54.90;;;;;;4993606;28;20284;-49
2021/08/20 10:11:53;;;;;;;4.80;3.55;;;14.50;55.60;;;;;;4993273;28;20544;-49
2021/08/20 10:14:27;;;;;;;4.78;3.90;;;14.50;54.90;;;;;;4993212;28;20240;-52
2021/08/20 10:16:58;;;;;;;4.03;3.50;;;14.50;54.90;;;;;;4993344;28;20257;-50
2021/08/20 10:19:28;;;;;;;4.05;3.53;;;14.40;54.90;;;;;;4993637;28;20434;-50
2021/08/20 10:21:59;;;;;;;4.15;3.42;;;14.40;54.90;;;;;;4992903;28;20251;-50
2021/08/20 10:24:30;;;;;;;4.20;3.30;;;14.40;55.00;;;;;;4993631;28;20234;-50
2021/08/20 10:27:02;;;;;;;3.95;3.20;;;14.40;54.90;;;;;;4993122;28;20284;-51
2021/08/20 10:29:35;;;;;;;4.75;3.50;;;14.40;54.90;;;;;;4993630;28;20194;-51
2021/08/20 10:32:07;;;;;;;4.05;3.30;;;14.40;55.00;;;;;;4993973;28;20244;-51
2021/08/20 10:34:39;;;;;;;4.18;3.50;;;14.30;54.80;;;;;;4994110;28;20622;-52
2021/08/20 10:37:13;;;;;;;3.92;3.53;;;14.30;54.90;;;;;;4994120;28;20538;-54
2021/08/20 10:39:44;;;;;;;5.03;3.30;;;14.30;54.90;;;;;;4994171;28;20228;-52
2021/08/20 10:42:15;;;;;;;3.83;3.42;;;14.30;54.90;;;;;;4994118;28;20243;-53
2021/08/20 10:44:47;;;;;;;3.53;3.20;;;14.30;54.90;;;;;;4993486;28;20315;-55
2021/08/20 10:47:27;;;;;;;3.60;3.30;;;14.30;54.90;;;;;;4993313;28;20268;-53
2021/08/20 10:50:10;;;;;;;4.25;3.33;;;14.20;54.80;;;;;;4975386;28;20232;-54
2021/08/20 10:52:44;;;;;;;4.13;3.40;;;14.20;54.90;;;;;;4974354;28;20236;-54
2021/08/20 10:55:18;;;;;;;4.43;3.45;;;14.20;54.80;;;;;;4974134;28;20605;-53
2021/08/20 10:58:14;;;;;;;4.55;3.42;;;14.20;54.90;;;;;;4973759;28;20272;-56
2021/08/20 11:00:58;;;;;;;3.83;3.25;;;14.10;55.20;;;;;;4973920;28;20198;-51
2021/08/20 11:03:49;;;;;;;3.30;2.95;;;14.10;54.80;;;;;;4974226;28;20658;-52
2021/08/20 11:06:51;;;;;;;4.20;3.60;;;14.10;54.90;;;;;;4973945;28;20289;-49
2021/08/20 11:09:34;;;;;;;4.43;3.15;;;14.10;54.80;;;;;;4973822;28;20284;-52
2021/08/20 11:12:04;;;;;;;3.83;3.28;;;14.10;54.90;;;;;;4973530;28;20226;-53
2021/08/20 11:14:38;;;;;;;4.43;3.38;;;14.10;54.90;;;;;;4975057;28;20725;-51
2021/08/20 11:17:10;;;;;;;4.68;3.15;;;14.10;55.00;;;;;;4992976;28;20268;-49
2021/08/20 11:19:59;;;;;;;6.30;2.90;;;14.10;55.80;;;;;;4993271;28;20229;-50
2021/08/20 11:22:30;;;;;;;4.93;3.35;;;14.10;56.40;;;;;;4992793;28;20613;-53
2021/08/20 11:25:17;;;;;;;4.50;3.40;;;14.10;56.30;;;;;;4992573;28;20260;-50
2021/08/20 11:28:01;;;;;;;4.00;2.80;;;14.10;56.20;;;;;;5036788;22;20485;-41
2021/08/20 11:30:32;;;;;;;6.70;3.15;;;14.10;56.30;;;;;;5032320;28;20227;-46
2021/08/20 11:33:17;;;;;;;5.80;3.58;;;14.10;56.30;;;;;;5032264;28;20633;-45
2021/08/20 11:35:49;;;;;;;5.75;3.20;;;14.10;56.30;;;;;;5032020;28;20342;-42
2021/08/20 11:38:36;;;;;;;4.90;3.05;;;14.00;56.20;;;;;;5032517;28;20274;-42
2021/08/20 11:41:09;;;;;;;5.72;3.05;;;14.00;56.30;;;;;;5031864;28;20611;-41
2021/08/20 11:43:39;;;;;;;5.43;3.78;;;14.00;56.20;;;;;;5031680;28;20224;-43
2021/08/20 11:46:10;;;;;;;6.65;4.13;;;14.00;56.20;;;;;;5032040;28;20240;-42
2021/08/20 11:48:49;;;;;;;7.38;3.63;;;14.00;56.30;;;;;;5032144;28;20729;-42
2021/08/20 11:51:26;;;;;;;5.32;3.08;;;14.00;56.30;;;;;;5031942;28;20278;-42
2021/08/20 11:53:57;;;;;;;8.27;3.67;;;14.00;56.30;;;;;;5032146;28;20215;-46
2021/08/20 11:56:27;;;;;;;5.38;3.60;;;14.00;56.20;;;;;;5031889;28;20231;-45
2021/08/20 11:58:58;;;;;;;7.88;3.88;;;13.90;56.20;;;;;;5032046;28;20287;-42
2021/08/20 12:01:31;;;;;;;4.55;3.38;;;13.90;56.20;;;;;;5031817;28;20232;-41
2021/08/20 12:04:03;;;;;;;7.75;3.65;;;13.90;56.20;;;;;;5031385;28;20223;-44
2021/08/20 12:06:34;;;;;;;4.72;3.42;;;13.90;56.10;;;;;;5031238;28;20251;-47
2021/08/20 12:09:13;;;;;;;7.53;3.63;;;13.90;56.20;;;;;;5031800;28;20238;-45
2021/08/20 12:11:45;;;;;;;4.85;3.30;;;13.90;56.20;;;;;;5031315;28;20650;-41
2021/08/20 12:14:18;;;;;;;7.63;4.53;;;13.80;56.00;;;;;;5030461;28;20228;-46
2021/08/20 12:16:49;;;;;;;8.98;4.13;;;13.80;56.10;;;;;;5012083;28;20252;-41
2021/08/20 12:19:23;;;;;;;6.25;4.10;;;13.80;56.20;;;;;;5011956;28;20236;-42
2021/08/20 12:21:54;;;;;;;5.80;3.50;;;13.80;56.30;;;;;;5012052;28;20208;-44
2021/08/20 12:24:34;;;;;;;7.55;3.90;;;13.80;56.40;;;;;;5011884;28;20311;-43
2021/08/20 12:27:15;;;;;;;4.35;3.17;;;13.80;56.30;;;;;;5011772;28;20327;-45
2021/08/20 12:29:46;;;;;;;6.28;3.47;;;13.80;56.30;;;;;;5011602;28;20236;-42
2021/08/20 12:32:23;;;;;;;5.05;3.92;;;13.70;56.20;;;;;;5011189;28;20236;-45
2021/08/20 12:35:01;;;;;;;5.95;3.33;;;13.70;56.10;;;;;;5011024;28;20219;-42
2021/08/20 12:37:32;;;;;;;6.47;3.55;;;13.70;56.10;;;;;;5011553;28;20676;-41
2021/08/20 12:40:09;;;;;;;6.55;3.47;;;13.70;56.70;;;;;;5011443;28;20235;-42
2021/08/20 12:42:46;;;;;;;4.68;3.30;;;13.70;56.10;;;;;;5011193;28;20232;-42
2021/08/20 12:45:16;;;;;;;5.15;3.60;;;13.60;56.10;;;;;;5018405;28;20227;-44
2021/08/20 12:47:47;;;;;;;5.57;3.45;;;13.60;56.00;;;;;;5030292;28;20403;-42
2021/08/20 12:50:20;;;;;;;6.40;3.63;;;13.60;56.00;;;;;;5030994;28;20235;-42
2021/08/20 12:52:51;;;;;;;5.88;3.45;;;13.60;55.90;;;;;;5031379;28;20227;-42
2021/08/20 12:55:34;;;;;;;5.47;3.50;;;13.60;55.90;;;;;;5031131;28;20634;-43
2021/08/20 12:58:04;;;;;;;5.80;3.70;;;13.60;55.90;;;;;;5031429;28;20258;-42
2021/08/20 13:00:36;;;;;;;6.32;3.83;;;13.50;55.80;;;;;;5031191;28;20238;-46
2021/08/20 13:03:08;;;;;;;5.97;3.78;;;13.50;55.80;;;;;;5031126;28;20266;-42
2021/08/20 13:05:43;;;;;;;5.57;3.47;;;13.50;55.70;;;;;;5030806;28;20315;-41
2021/08/20 13:08:13;;;;;;;5.25;3.33;;;13.50;55.70;;;;;;5030663;28;20251;-42
2021/08/20 13:10:44;;;;;;;7.30;3.63;;;13.50;55.70;;;;;;5031005;28;20235;-41
2021/08/20 13:13:14;;;;;;;5.80;3.25;;;13.50;55.70;;;;;;5030781;28;20283;-46